sensor_id;sensor_type;location;lat;lon;timestamp;P1;durP1;ratioP1;P2;durP2;ratioP2
9052;SDS011;4561;47.450;7.516;2022-12-15T00:02:41;300.53;;;14.73;;
9052;SDS011;4561;47.450;7.516;2022-12-15T00:06:20;25.23;;;5.70;;
9052;SDS011;4561;47.450;7.516;2022-12-15T00:09:59;4.60;;;4.07;;
9052;SDS011;4561;47.450;7.516;2022-12-15T00:13:38;106.40;;;7.40;;
9052;SDS011;4561;47.450;7.516;2022-12-15T00:17:16;240.80;;;12.10;;
9052;SDS011;4561;47.450;7.516;2022-12-15T00:20:56;251.33;;;10.40;;
9052;SDS011;4561;47.450;7.516;2022-12-15T00:24:36;151.83;;;7.87;;
9052;SDS011;4561;47.450;7.516;2022-12-15T00:28:15;212.83;;;9.30;;
9052;SDS011;4561;47.450;7.516;2022-12-15T00:31:53;248.30;;;11.27;;
9052;SDS011;4561;47.450;7.516;2022-12-15T00:35:32;576.10;;;21.67;;
9052;SDS011;4561;47.450;7.516;2022-12-15T00:39:11;445.67;;;18.20;;
9052;SDS011;4561;47.450;7.516;2022-12-15T00:42:31;502.07;;;19.83;;
9052;SDS011;4561;47.450;7.516;2022-12-15T00:45:52;667.53;;;22.37;;
9052;SDS011;4561;47.450;7.516;2022-12-15T00:49:30;752.17;;;25.00;;
9052;SDS011;4561;47.450;7.516;2022-12-15T00:53:09;603.33;;;20.43;;
9052;SDS011;4561;47.450;7.516;2022-12-15T00:56:51;817.07;;;28.10;;
9052;SDS011;4561;47.450;7.516;2022-12-15T01:00:30;680.80;;;25.43;;
9052;SDS011;4561;47.450;7.516;2022-12-15T01:04:09;452.07;;;19.50;;
9052;SDS011;4561;47.450;7.516;2022-12-15T01:07:48;533.13;;;20.77;;
9052;SDS011;4561;47.450;7.516;2022-12-15T01:11:27;839.67;;;30.50;;
9052;SDS011;4561;47.450;7.516;2022-12-15T01:15:06;684.57;;;24.67;;
9052;SDS011;4561;47.450;7.516;2022-12-15T01:18:45;681.83;;;23.80;;
9052;SDS011;4561;47.450;7.516;2022-12-15T01:22:24;438.17;;;19.80;;
9052;SDS011;4561;47.450;7.516;2022-12-15T01:25:44;460.07;;;17.70;;
9052;SDS011;4561;47.450;7.516;2022-12-15T01:29:07;596.63;;;24.03;;
9052;SDS011;4561;47.450;7.516;2022-12-15T01:32:27;1171.07;;;40.33;;
9052;SDS011;4561;47.450;7.516;2022-12-15T01:35:57;115.87;;;7.13;;
9052;SDS011;4561;47.450;7.516;2022-12-15T01:39:18;318.07;;;13.10;;
9052;SDS011;4561;47.450;7.516;2022-12-15T01:42:44;90.87;;;6.40;;
9052;SDS011;4561;47.450;7.516;2022-12-15T01:46:37;565.13;;;19.77;;
9052;SDS011;4561;47.450;7.516;2022-12-15T01:49:51;157.73;;;8.57;;
9052;SDS011;4561;47.450;7.516;2022-12-15T01:53:13;387.97;;;14.13;;
9052;SDS011;4561;47.450;7.516;2022-12-15T01:56:36;622.40;;;21.60;;
9052;SDS011;4561;47.450;7.516;2022-12-15T01:59:58;256.70;;;11.17;;
9052;SDS011;4561;47.450;7.516;2022-12-15T02:03:21;102.90;;;6.27;;
9052;SDS011;4561;47.450;7.516;2022-12-15T02:06:42;294.17;;;13.67;;
9052;SDS011;4561;47.450;7.516;2022-12-15T02:10:03;596.87;;;22.30;;
9052;SDS011;4561;47.450;7.516;2022-12-15T02:17:20;288.50;;;12.90;;
9052;SDS011;4561;47.450;7.516;2022-12-15T02:24:30;385.20;;;15.07;;
9052;SDS011;4561;47.450;7.516;2022-12-15T02:32:02;332.60;;;18.70;;
9052;SDS011;4561;47.450;7.516;2022-12-15T02:35:28;183.30;;;10.53;;
9052;SDS011;4561;47.450;7.516;2022-12-15T02:39:13;117.03;;;7.87;;
9052;SDS011;4561;47.450;7.516;2022-12-15T02:42:34;40.20;;;6.77;;
9052;SDS011;4561;47.450;7.516;2022-12-15T02:49:34;169.10;;;9.20;;
9052;SDS011;4561;47.450;7.516;2022-12-15T02:53:11;281.27;;;12.40;;
9052;SDS011;4561;47.450;7.516;2022-12-15T03:00:08;325.47;;;14.50;;
9052;SDS011;4561;47.450;7.516;2022-12-15T03:03:30;23.03;;;4.20;;
9052;SDS011;4561;47.450;7.516;2022-12-15T03:06:56;91.27;;;6.07;;
9052;SDS011;4561;47.450;7.516;2022-12-15T03:10:18;86.13;;;6.13;;
9052;SDS011;4561;47.450;7.516;2022-12-15T03:13:39;49.43;;;4.93;;
9052;SDS011;4561;47.450;7.516;2022-12-15T03:17:00;53.20;;;4.37;;
9052;SDS011;4561;47.450;7.516;2022-12-15T03:20:23;218.83;;;10.97;;
9052;SDS011;4561;47.450;7.516;2022-12-15T03:23:43;42.80;;;5.30;;
9052;SDS011;4561;47.450;7.516;2022-12-15T03:27:03;227.57;;;9.97;;
9052;SDS011;4561;47.450;7.516;2022-12-15T03:30:24;63.47;;;5.67;;
9052;SDS011;4561;47.450;7.516;2022-12-15T03:33:44;54.73;;;4.73;;
9052;SDS011;4561;47.450;7.516;2022-12-15T03:37:05;12.00;;;2.50;;
9052;SDS011;4561;47.450;7.516;2022-12-15T03:40:25;5.97;;;3.50;;
9052;SDS011;4561;47.450;7.516;2022-12-15T03:43:45;5.60;;;2.50;;
9052;SDS011;4561;47.450;7.516;2022-12-15T03:47:06;2.83;;;2.63;;
9052;SDS011;4561;47.450;7.516;2022-12-15T03:50:27;15.90;;;2.80;;
9052;SDS011;4561;47.450;7.516;2022-12-15T03:53:50;37.10;;;3.60;;
9052;SDS011;4561;47.450;7.516;2022-12-15T03:57:11;6.30;;;2.93;;
9052;SDS011;4561;47.450;7.516;2022-12-15T04:00:32;8.27;;;2.60;;
9052;SDS011;4561;47.450;7.516;2022-12-15T04:03:53;3.57;;;2.57;;
9052;SDS011;4561;47.450;7.516;2022-12-15T04:07:13;11.73;;;2.60;;
9052;SDS011;4561;47.450;7.516;2022-12-15T04:10:37;23.47;;;3.73;;
9052;SDS011;4561;47.450;7.516;2022-12-15T04:13:57;3.07;;;2.60;;
9052;SDS011;4561;47.450;7.516;2022-12-15T04:17:17;6.43;;;5.70;;
9052;SDS011;4561;47.450;7.516;2022-12-15T04:20:40;5.63;;;2.60;;
9052;SDS011;4561;47.450;7.516;2022-12-15T04:24:03;8.57;;;3.20;;
9052;SDS011;4561;47.450;7.516;2022-12-15T04:27:42;58.60;;;4.43;;
9052;SDS011;4561;47.450;7.516;2022-12-15T04:31:30;189.83;;;8.13;;
9052;SDS011;4561;47.450;7.516;2022-12-15T04:35:11;188.37;;;9.47;;
9052;SDS011;4561;47.450;7.516;2022-12-15T04:38:49;145.40;;;7.73;;
9052;SDS011;4561;47.450;7.516;2022-12-15T04:42:29;196.63;;;9.87;;
9052;SDS011;4561;47.450;7.516;2022-12-15T04:46:09;113.17;;;7.23;;
9052;SDS011;4561;47.450;7.516;2022-12-15T04:49:48;45.67;;;4.47;;
9052;SDS011;4561;47.450;7.516;2022-12-15T04:53:27;122.30;;;6.93;;
9052;SDS011;4561;47.450;7.516;2022-12-15T04:57:05;4.73;;;3.20;;
9052;SDS011;4561;47.450;7.516;2022-12-15T05:00:44;8.20;;;3.60;;
9052;SDS011;4561;47.450;7.516;2022-12-15T05:04:23;5.57;;;3.57;;
9052;SDS011;4561;47.450;7.516;2022-12-15T05:08:02;157.33;;;8.90;;
9052;SDS011;4561;47.450;7.516;2022-12-15T05:11:41;36.10;;;5.10;;
9052;SDS011;4561;47.450;7.516;2022-12-15T05:15:20;134.50;;;8.13;;
9052;SDS011;4561;47.450;7.516;2022-12-15T05:18:59;122.03;;;7.10;;
9052;SDS011;4561;47.450;7.516;2022-12-15T05:22:37;228.33;;;12.67;;
9052;SDS011;4561;47.450;7.516;2022-12-15T05:26:16;161.87;;;9.43;;
9052;SDS011;4561;47.450;7.516;2022-12-15T05:29:55;128.67;;;8.60;;
9052;SDS011;4561;47.450;7.516;2022-12-15T05:33:34;44.97;;;5.87;;
9052;SDS011;4561;47.450;7.516;2022-12-15T05:36:55;116.90;;;8.33;;
9052;SDS011;4561;47.450;7.516;2022-12-15T05:40:16;110.73;;;7.80;;
9052;SDS011;4561;47.450;7.516;2022-12-15T05:43:36;135.63;;;8.43;;
9052;SDS011;4561;47.450;7.516;2022-12-15T05:46:58;495.83;;;18.17;;
9052;SDS011;4561;47.450;7.516;2022-12-15T05:50:19;116.80;;;7.67;;
9052;SDS011;4561;47.450;7.516;2022-12-15T05:53:40;137.97;;;7.70;;
9052;SDS011;4561;47.450;7.516;2022-12-15T05:57:03;343.73;;;15.00;;
9052;SDS011;4561;47.450;7.516;2022-12-15T06:00:24;12.63;;;4.20;;
9052;SDS011;4561;47.450;7.516;2022-12-15T06:03:44;212.87;;;10.77;;
9052;SDS011;4561;47.450;7.516;2022-12-15T06:07:05;165.60;;;9.67;;
9052;SDS011;4561;47.450;7.516;2022-12-15T06:10:25;23.03;;;4.47;;
9052;SDS011;4561;47.450;7.516;2022-12-15T06:13:46;334.73;;;15.40;;
9052;SDS011;4561;47.450;7.516;2022-12-15T06:17:07;52.30;;;6.20;;
9052;SDS011;4561;47.450;7.516;2022-12-15T06:20:29;79.23;;;7.13;;
9052;SDS011;4561;47.450;7.516;2022-12-15T06:23:55;29.67;;;6.53;;
9052;SDS011;4561;47.450;7.516;2022-12-15T06:27:16;64.07;;;7.63;;
9052;SDS011;4561;47.450;7.516;2022-12-15T06:30:36;62.33;;;7.03;;
9052;SDS011;4561;47.450;7.516;2022-12-15T06:34:02;131.27;;;8.60;;
9052;SDS011;4561;47.450;7.516;2022-12-15T06:37:23;35.63;;;4.43;;
9052;SDS011;4561;47.450;7.516;2022-12-15T06:40:44;19.87;;;4.40;;
9052;SDS011;4561;47.450;7.516;2022-12-15T06:44:09;133.63;;;10.23;;
9052;SDS011;4561;47.450;7.516;2022-12-15T06:47:31;19.80;;;5.80;;
9052;SDS011;4561;47.450;7.516;2022-12-15T06:50:52;7.23;;;6.20;;
9052;SDS011;4561;47.450;7.516;2022-12-15T06:54:13;21.73;;;6.90;;
9052;SDS011;4561;47.450;7.516;2022-12-15T06:57:33;67.30;;;6.63;;
9052;SDS011;4561;47.450;7.516;2022-12-15T07:00:55;95.50;;;7.70;;
9052;SDS011;4561;47.450;7.516;2022-12-15T07:04:16;7.17;;;5.70;;
9052;SDS011;4561;47.450;7.516;2022-12-15T07:07:37;6.53;;;5.93;;
9052;SDS011;4561;47.450;7.516;2022-12-15T07:10:57;60.13;;;6.80;;
9052;SDS011;4561;47.450;7.516;2022-12-15T07:14:20;77.23;;;7.70;;
9052;SDS011;4561;47.450;7.516;2022-12-15T07:17:42;27.17;;;5.50;;
9052;SDS011;4561;47.450;7.516;2022-12-15T07:21:03;108.93;;;8.73;;
9052;SDS011;4561;47.450;7.516;2022-12-15T07:24:25;20.13;;;6.40;;
9052;SDS011;4561;47.450;7.516;2022-12-15T07:27:45;22.87;;;5.67;;
9052;SDS011;4561;47.450;7.516;2022-12-15T07:31:07;30.07;;;7.13;;
9052;SDS011;4561;47.450;7.516;2022-12-15T07:34:32;21.03;;;7.53;;
9052;SDS011;4561;47.450;7.516;2022-12-15T07:37:54;412.03;;;22.77;;
9052;SDS011;4561;47.450;7.516;2022-12-15T07:41:14;12.20;;;8.60;;
9052;SDS011;4561;47.450;7.516;2022-12-15T07:44:35;19.53;;;8.90;;
9052;SDS011;4561;47.450;7.516;2022-12-15T07:47:55;21.83;;;6.70;;
9052;SDS011;4561;47.450;7.516;2022-12-15T07:51:16;38.60;;;8.47;;
9052;SDS011;4561;47.450;7.516;2022-12-15T07:54:36;15.40;;;7.00;;
9052;SDS011;4561;47.450;7.516;2022-12-15T07:57:57;250.00;;;15.03;;
9052;SDS011;4561;47.450;7.516;2022-12-15T08:01:17;42.90;;;7.80;;
9052;SDS011;4561;47.450;7.516;2022-12-15T08:04:38;56.50;;;8.00;;
9052;SDS011;4561;47.450;7.516;2022-12-15T08:07:59;94.03;;;10.73;;
9052;SDS011;4561;47.450;7.516;2022-12-15T08:11:20;58.33;;;10.13;;
9052;SDS011;4561;47.450;7.516;2022-12-15T08:14:41;25.10;;;9.37;;
9052;SDS011;4561;47.450;7.516;2022-12-15T08:18:02;15.20;;;9.20;;
9052;SDS011;4561;47.450;7.516;2022-12-15T08:21:23;20.57;;;10.27;;
9052;SDS011;4561;47.450;7.516;2022-12-15T08:24:44;40.47;;;11.00;;
9052;SDS011;4561;47.450;7.516;2022-12-15T08:28:04;25.87;;;11.67;;
9052;SDS011;4561;47.450;7.516;2022-12-15T08:31:27;151.73;;;12.97;;
9052;SDS011;4561;47.450;7.516;2022-12-15T08:34:49;19.70;;;12.10;;
9052;SDS011;4561;47.450;7.516;2022-12-15T08:38:10;10.60;;;8.77;;
9052;SDS011;4561;47.450;7.516;2022-12-15T08:41:31;9.37;;;8.37;;
9052;SDS011;4561;47.450;7.516;2022-12-15T08:44:56;11.47;;;9.00;;
9052;SDS011;4561;47.450;7.516;2022-12-15T08:48:16;11.87;;;10.20;;
9052;SDS011;4561;47.450;7.516;2022-12-15T08:51:37;11.50;;;10.30;;
9052;SDS011;4561;47.450;7.516;2022-12-15T08:54:57;11.40;;;10.17;;
9052;SDS011;4561;47.450;7.516;2022-12-15T08:58:18;13.13;;;11.67;;
9052;SDS011;4561;47.450;7.516;2022-12-15T09:01:38;12.67;;;11.40;;
9052;SDS011;4561;47.450;7.516;2022-12-15T09:04:59;126.37;;;16.73;;
9052;SDS011;4561;47.450;7.516;2022-12-15T09:08:19;15.77;;;12.47;;
9052;SDS011;4561;47.450;7.516;2022-12-15T09:11:41;17.23;;;12.93;;
9052;SDS011;4561;47.450;7.516;2022-12-15T09:15:02;44.13;;;12.73;;
9052;SDS011;4561;47.450;7.516;2022-12-15T09:18:22;34.43;;;11.93;;
9052;SDS011;4561;47.450;7.516;2022-12-15T09:21:43;15.07;;;11.23;;
9052;SDS011;4561;47.450;7.516;2022-12-15T09:25:07;33.50;;;12.70;;
9052;SDS011;4561;47.450;7.516;2022-12-15T09:28:28;244.40;;;18.50;;
9052;SDS011;4561;47.450;7.516;2022-12-15T09:31:49;502.27;;;29.27;;
9052;SDS011;4561;47.450;7.516;2022-12-15T09:35:09;1047.23;;;50.10;;
9052;SDS011;4561;47.450;7.516;2022-12-15T09:38:32;830.23;;;40.93;;
9052;SDS011;4561;47.450;7.516;2022-12-15T09:41:54;739.33;;;37.27;;
9052;SDS011;4561;47.450;7.516;2022-12-15T09:45:21;113.90;;;19.17;;
9052;SDS011;4561;47.450;7.516;2022-12-15T09:48:43;188.77;;;19.60;;
9052;SDS011;4561;47.450;7.516;2022-12-15T09:52:05;156.30;;;20.37;;
9052;SDS011;4561;47.450;7.516;2022-12-15T09:55:32;769.37;;;42.30;;
9052;SDS011;4561;47.450;7.516;2022-12-15T09:58:58;88.47;;;20.73;;
9052;SDS011;4561;47.450;7.516;2022-12-15T10:09:44;312.30;;;26.73;;
9052;SDS011;4561;47.450;7.516;2022-12-15T10:13:39;545.03;;;34.57;;
9052;SDS011;4561;47.450;7.516;2022-12-15T10:17:01;461.17;;;33.63;;
9052;SDS011;4561;47.450;7.516;2022-12-15T10:20:27;459.17;;;32.37;;
9052;SDS011;4561;47.450;7.516;2022-12-15T10:23:49;560.40;;;36.90;;
9052;SDS011;4561;47.450;7.516;2022-12-15T10:34:27;585.37;;;37.73;;
9052;SDS011;4561;47.450;7.516;2022-12-15T10:37:53;547.17;;;35.30;;
9052;SDS011;4561;47.450;7.516;2022-12-15T10:41:24;148.80;;;26.17;;
9052;SDS011;4561;47.450;7.516;2022-12-15T10:44:49;372.23;;;34.13;;
9052;SDS011;4561;47.450;7.516;2022-12-15T10:48:17;645.23;;;36.70;;
9052;SDS011;4561;47.450;7.516;2022-12-15T10:51:46;411.70;;;34.70;;
9052;SDS011;4561;47.450;7.516;2022-12-15T10:59:01;132.10;;;24.63;;
9052;SDS011;4561;47.450;7.516;2022-12-15T11:02:25;24.50;;;16.77;;
9052;SDS011;4561;47.450;7.516;2022-12-15T11:05:52;13.83;;;9.13;;
9052;SDS011;4561;47.450;7.516;2022-12-15T11:09:35;14.30;;;9.83;;
9052;SDS011;4561;47.450;7.516;2022-12-15T11:13:09;17.50;;;8.97;;
9052;SDS011;4561;47.450;7.516;2022-12-15T11:16:32;16.37;;;10.50;;
9052;SDS011;4561;47.450;7.516;2022-12-15T11:19:59;23.77;;;13.40;;
9052;SDS011;4561;47.450;7.516;2022-12-15T11:23:27;24.70;;;16.80;;
9052;SDS011;4561;47.450;7.516;2022-12-15T11:30:19;35.90;;;21.43;;
9052;SDS011;4561;47.450;7.516;2022-12-15T11:33:43;118.43;;;28.37;;
9052;SDS011;4561;47.450;7.516;2022-12-15T11:37:08;315.77;;;31.17;;
9052;SDS011;4561;47.450;7.516;2022-12-15T11:40:40;113.47;;;24.20;;
9052;SDS011;4561;47.450;7.516;2022-12-15T11:51:01;96.90;;;20.90;;
9052;SDS011;4561;47.450;7.516;2022-12-15T12:12:32;34.03;;;20.10;;
9052;SDS011;4561;47.450;7.516;2022-12-15T12:19:26;129.17;;;32.90;;
9052;SDS011;4561;47.450;7.516;2022-12-15T12:26:25;125.87;;;27.50;;
9052;SDS011;4561;47.450;7.516;2022-12-15T12:30:37;139.87;;;26.57;;
9052;SDS011;4561;47.450;7.516;2022-12-15T12:33:38;366.37;;;31.30;;
9052;SDS011;4561;47.450;7.516;2022-12-15T12:37:03;267.03;;;33.00;;
9052;SDS011;4561;47.450;7.516;2022-12-15T12:43:53;164.33;;;29.83;;
9052;SDS011;4561;47.450;7.516;2022-12-15T12:50:42;82.13;;;26.93;;
9052;SDS011;4561;47.450;7.516;2022-12-15T12:54:09;72.03;;;24.40;;
9052;SDS011;4561;47.450;7.516;2022-12-15T12:57:57;48.27;;;23.20;;
9052;SDS011;4561;47.450;7.516;2022-12-15T13:01:31;49.07;;;22.27;;
9052;SDS011;4561;47.450;7.516;2022-12-15T13:09:18;124.77;;;25.23;;
9052;SDS011;4561;47.450;7.516;2022-12-15T13:26:42;110.70;;;24.37;;
9052;SDS011;4561;47.450;7.516;2022-12-15T13:33:26;47.97;;;26.17;;
9052;SDS011;4561;47.450;7.516;2022-12-15T13:36:51;452.60;;;35.60;;
9052;SDS011;4561;47.450;7.516;2022-12-15T13:43:42;67.43;;;26.80;;
9052;SDS011;4561;47.450;7.516;2022-12-15T13:50:42;59.00;;;21.13;;
9052;SDS011;4561;47.450;7.516;2022-12-15T13:57:29;212.10;;;31.07;;
9052;SDS011;4561;47.450;7.516;2022-12-15T14:00:52;83.77;;;28.73;;
9052;SDS011;4561;47.450;7.516;2022-12-15T14:04:16;160.20;;;29.93;;
9052;SDS011;4561;47.450;7.516;2022-12-15T14:07:39;142.90;;;28.67;;
9052;SDS011;4561;47.450;7.516;2022-12-15T14:11:00;321.43;;;54.03;;
9052;SDS011;4561;47.450;7.516;2022-12-15T14:14:25;199.63;;;34.77;;
9052;SDS011;4561;47.450;7.516;2022-12-15T14:17:51;295.73;;;40.80;;
9052;SDS011;4561;47.450;7.516;2022-12-15T14:21:20;77.37;;;42.80;;
9052;SDS011;4561;47.450;7.516;2022-12-15T14:24:42;129.60;;;39.93;;
9052;SDS011;4561;47.450;7.516;2022-12-15T14:28:21;175.07;;;34.47;;
9052;SDS011;4561;47.450;7.516;2022-12-15T14:31:52;88.60;;;30.33;;
9052;SDS011;4561;47.450;7.516;2022-12-15T14:38:53;73.63;;;26.77;;
9052;SDS011;4561;47.450;7.516;2022-12-15T14:42:26;53.60;;;25.27;;
9052;SDS011;4561;47.450;7.516;2022-12-15T14:45:48;55.27;;;23.67;;
9052;SDS011;4561;47.450;7.516;2022-12-15T14:49:12;184.90;;;38.63;;
9052;SDS011;4561;47.450;7.516;2022-12-15T14:52:40;163.03;;;32.33;;
9052;SDS011;4561;47.450;7.516;2022-12-15T14:59:52;71.87;;;29.07;;
9052;SDS011;4561;47.450;7.516;2022-12-15T15:06:41;81.70;;;29.60;;
9052;SDS011;4561;47.450;7.516;2022-12-15T15:10:15;62.03;;;28.13;;
9052;SDS011;4561;47.450;7.516;2022-12-15T15:13:40;39.73;;;24.43;;
9052;SDS011;4561;47.450;7.516;2022-12-15T15:17:02;43.03;;;25.27;;
9052;SDS011;4561;47.450;7.516;2022-12-15T15:20:23;72.63;;;29.20;;
9052;SDS011;4561;47.450;7.516;2022-12-15T15:23:59;70.17;;;29.23;;
9052;SDS011;4561;47.450;7.516;2022-12-15T15:30:56;156.30;;;32.53;;
9052;SDS011;4561;47.450;7.516;2022-12-15T15:34:24;140.87;;;32.27;;
9052;SDS011;4561;47.450;7.516;2022-12-15T15:37:47;203.43;;;33.57;;
9052;SDS011;4561;47.450;7.516;2022-12-15T15:41:26;84.87;;;27.63;;
9052;SDS011;4561;47.450;7.516;2022-12-15T15:44:50;215.67;;;41.63;;
9052;SDS011;4561;47.450;7.516;2022-12-15T15:48:15;139.23;;;37.30;;
9052;SDS011;4561;47.450;7.516;2022-12-15T15:51:40;175.10;;;40.87;;
9052;SDS011;4561;47.450;7.516;2022-12-15T15:55:00;98.40;;;36.03;;
9052;SDS011;4561;47.450;7.516;2022-12-15T15:58:24;120.63;;;35.80;;
9052;SDS011;4561;47.450;7.516;2022-12-15T16:01:44;175.10;;;40.43;;
9052;SDS011;4561;47.450;7.516;2022-12-15T16:05:08;230.83;;;41.97;;
9052;SDS011;4561;47.450;7.516;2022-12-15T16:08:32;469.20;;;44.57;;
9052;SDS011;4561;47.450;7.516;2022-12-15T16:11:54;166.80;;;41.50;;
9052;SDS011;4561;47.450;7.516;2022-12-15T16:15:19;206.67;;;38.37;;
9052;SDS011;4561;47.450;7.516;2022-12-15T16:18:40;341.40;;;40.10;;
9052;SDS011;4561;47.450;7.516;2022-12-15T16:22:00;262.93;;;42.23;;
9052;SDS011;4561;47.450;7.516;2022-12-15T16:25:32;330.13;;;44.27;;
9052;SDS011;4561;47.450;7.516;2022-12-15T16:28:54;199.33;;;38.37;;
9052;SDS011;4561;47.450;7.516;2022-12-15T16:32:17;220.47;;;43.43;;
9052;SDS011;4561;47.450;7.516;2022-12-15T16:35:38;135.77;;;36.50;;
9052;SDS011;4561;47.450;7.516;2022-12-15T16:39:02;74.93;;;31.13;;
9052;SDS011;4561;47.450;7.516;2022-12-15T16:42:25;120.37;;;42.83;;
9052;SDS011;4561;47.450;7.516;2022-12-15T16:45:46;101.97;;;40.47;;
9052;SDS011;4561;47.450;7.516;2022-12-15T16:49:08;97.77;;;42.00;;
9052;SDS011;4561;47.450;7.516;2022-12-15T16:52:28;112.73;;;50.90;;
9052;SDS011;4561;47.450;7.516;2022-12-15T16:55:50;96.10;;;44.77;;
9052;SDS011;4561;47.450;7.516;2022-12-15T16:59:16;181.53;;;44.83;;
9052;SDS011;4561;47.450;7.516;2022-12-15T17:02:39;224.50;;;44.07;;
9052;SDS011;4561;47.450;7.516;2022-12-15T17:06:01;275.57;;;42.37;;
9052;SDS011;4561;47.450;7.516;2022-12-15T17:09:23;232.50;;;49.90;;
9052;SDS011;4561;47.450;7.516;2022-12-15T17:12:44;434.97;;;50.73;;
9052;SDS011;4561;47.450;7.516;2022-12-15T17:16:05;553.30;;;54.07;;
9052;SDS011;4561;47.450;7.516;2022-12-15T17:19:29;157.43;;;41.43;;
9052;SDS011;4561;47.450;7.516;2022-12-15T17:22:50;110.90;;;39.30;;
9052;SDS011;4561;47.450;7.516;2022-12-15T17:26:13;92.80;;;40.20;;
9052;SDS011;4561;47.450;7.516;2022-12-15T17:29:38;70.20;;;35.97;;
9052;SDS011;4561;47.450;7.516;2022-12-15T17:33:02;94.30;;;42.50;;
9052;SDS011;4561;47.450;7.516;2022-12-15T17:36:45;474.13;;;79.57;;
9052;SDS011;4561;47.450;7.516;2022-12-15T17:40:19;208.77;;;46.93;;
9052;SDS011;4561;47.450;7.516;2022-12-15T17:43:42;312.80;;;47.53;;
9052;SDS011;4561;47.450;7.516;2022-12-15T17:47:03;90.37;;;37.60;;
9052;SDS011;4561;47.450;7.516;2022-12-15T17:50:26;74.07;;;35.10;;
9052;SDS011;4561;47.450;7.516;2022-12-15T17:53:46;83.83;;;38.53;;
9052;SDS011;4561;47.450;7.516;2022-12-15T17:57:08;103.67;;;40.17;;
9052;SDS011;4561;47.450;7.516;2022-12-15T18:00:32;124.83;;;39.00;;
9052;SDS011;4561;47.450;7.516;2022-12-15T18:03:57;150.80;;;41.60;;
9052;SDS011;4561;47.450;7.516;2022-12-15T18:07:18;167.87;;;41.87;;
9052;SDS011;4561;47.450;7.516;2022-12-15T18:10:43;70.53;;;36.83;;
9052;SDS011;4561;47.450;7.516;2022-12-15T18:14:13;75.97;;;37.13;;
9052;SDS011;4561;47.450;7.516;2022-12-15T18:17:35;104.73;;;37.83;;
9052;SDS011;4561;47.450;7.516;2022-12-15T18:20:58;84.10;;;35.27;;
9052;SDS011;4561;47.450;7.516;2022-12-15T18:24:19;80.80;;;35.83;;
9052;SDS011;4561;47.450;7.516;2022-12-15T18:27:40;131.47;;;34.67;;
9052;SDS011;4561;47.450;7.516;2022-12-15T18:31:05;174.07;;;35.10;;
9052;SDS011;4561;47.450;7.516;2022-12-15T18:34:32;99.60;;;30.90;;
9052;SDS011;4561;47.450;7.516;2022-12-15T18:37:53;560.83;;;41.13;;
9052;SDS011;4561;47.450;7.516;2022-12-15T18:41:14;58.97;;;27.43;;
9052;SDS011;4561;47.450;7.516;2022-12-15T18:44:36;406.70;;;34.93;;
9052;SDS011;4561;47.450;7.516;2022-12-15T18:47:57;159.37;;;28.00;;
9052;SDS011;4561;47.450;7.516;2022-12-15T18:51:18;42.83;;;25.40;;
9052;SDS011;4561;47.450;7.516;2022-12-15T18:54:40;38.57;;;24.67;;
9052;SDS011;4561;47.450;7.516;2022-12-15T18:58:00;35.00;;;23.50;;
9052;SDS011;4561;47.450;7.516;2022-12-15T19:01:21;78.63;;;27.33;;
9052;SDS011;4561;47.450;7.516;2022-12-15T19:04:41;43.10;;;24.17;;
9052;SDS011;4561;47.450;7.516;2022-12-15T19:11:29;136.30;;;27.97;;
9052;SDS011;4561;47.450;7.516;2022-12-15T19:14:52;279.73;;;33.03;;
9052;SDS011;4561;47.450;7.516;2022-12-15T19:18:16;140.67;;;27.43;;
9052;SDS011;4561;47.450;7.516;2022-12-15T19:21:55;660.33;;;44.30;;
9052;SDS011;4561;47.450;7.516;2022-12-15T19:25:36;178.87;;;30.20;;
9052;SDS011;4561;47.450;7.516;2022-12-15T19:28:59;211.13;;;30.00;;
9052;SDS011;4561;47.450;7.516;2022-12-15T19:32:19;40.20;;;24.53;;
9052;SDS011;4561;47.450;7.516;2022-12-15T19:35:43;55.23;;;25.30;;
9052;SDS011;4561;47.450;7.516;2022-12-15T19:39:14;97.53;;;24.90;;
9052;SDS011;4561;47.450;7.516;2022-12-15T19:42:38;87.10;;;23.53;;
9052;SDS011;4561;47.450;7.516;2022-12-15T19:45:59;117.73;;;23.67;;
9052;SDS011;4561;47.450;7.516;2022-12-15T19:49:22;33.17;;;20.73;;
9052;SDS011;4561;47.450;7.516;2022-12-15T19:52:43;41.00;;;22.20;;
9052;SDS011;4561;47.450;7.516;2022-12-15T19:56:06;39.40;;;21.03;;
9052;SDS011;4561;47.450;7.516;2022-12-15T19:59:28;65.33;;;24.93;;
9052;SDS011;4561;47.450;7.516;2022-12-15T20:02:49;40.07;;;20.37;;
9052;SDS011;4561;47.450;7.516;2022-12-15T20:06:17;29.07;;;19.80;;
9052;SDS011;4561;47.450;7.516;2022-12-15T20:09:41;43.13;;;21.90;;
9052;SDS011;4561;47.450;7.516;2022-12-15T20:13:02;43.23;;;21.63;;
9052;SDS011;4561;47.450;7.516;2022-12-15T20:16:22;51.53;;;19.50;;
9052;SDS011;4561;47.450;7.516;2022-12-15T20:19:45;33.47;;;19.00;;
9052;SDS011;4561;47.450;7.516;2022-12-15T20:23:09;49.60;;;18.67;;
9052;SDS011;4561;47.450;7.516;2022-12-15T20:26:36;29.37;;;18.00;;
9052;SDS011;4561;47.450;7.516;2022-12-15T20:29:59;30.60;;;18.40;;
9052;SDS011;4561;47.450;7.516;2022-12-15T20:33:20;110.97;;;23.30;;
9052;SDS011;4561;47.450;7.516;2022-12-15T20:36:40;48.23;;;19.70;;
9052;SDS011;4561;47.450;7.516;2022-12-15T20:40:05;47.03;;;17.37;;
9052;SDS011;4561;47.450;7.516;2022-12-15T20:43:45;47.47;;;15.30;;
9052;SDS011;4561;47.450;7.516;2022-12-15T20:47:09;79.10;;;17.10;;
9052;SDS011;4561;47.450;7.516;2022-12-15T20:50:40;33.10;;;14.53;;
9052;SDS011;4561;47.450;7.516;2022-12-15T20:54:06;20.33;;;14.03;;
9052;SDS011;4561;47.450;7.516;2022-12-15T20:57:29;22.80;;;14.67;;
9052;SDS011;4561;47.450;7.516;2022-12-15T21:00:50;22.53;;;15.17;;
9052;SDS011;4561;47.450;7.516;2022-12-15T21:04:24;91.40;;;18.30;;
9052;SDS011;4561;47.450;7.516;2022-12-15T21:07:48;138.60;;;20.47;;
9052;SDS011;4561;47.450;7.516;2022-12-15T21:11:13;294.00;;;26.60;;
9052;SDS011;4561;47.450;7.516;2022-12-15T21:14:34;576.53;;;36.47;;
9052;SDS011;4561;47.450;7.516;2022-12-15T21:17:54;421.27;;;33.93;;
9052;SDS011;4561;47.450;7.516;2022-12-15T21:21:19;26.73;;;17.80;;
9052;SDS011;4561;47.450;7.516;2022-12-15T21:24:45;226.67;;;24.73;;
9052;SDS011;4561;47.450;7.516;2022-12-15T21:28:09;70.83;;;19.47;;
9052;SDS011;4561;47.450;7.516;2022-12-15T21:31:30;42.93;;;18.47;;
9052;SDS011;4561;47.450;7.516;2022-12-15T21:34:51;24.20;;;17.13;;
9052;SDS011;4561;47.450;7.516;2022-12-15T21:38:19;66.07;;;18.43;;
9052;SDS011;4561;47.450;7.516;2022-12-15T21:41:46;18.93;;;15.07;;
9052;SDS011;4561;47.450;7.516;2022-12-15T21:45:13;20.63;;;15.10;;
9052;SDS011;4561;47.450;7.516;2022-12-15T21:48:40;19.83;;;15.20;;
9052;SDS011;4561;47.450;7.516;2022-12-15T21:52:21;23.97;;;16.13;;
9052;SDS011;4561;47.450;7.516;2022-12-15T21:55:43;47.53;;;18.03;;
9052;SDS011;4561;47.450;7.516;2022-12-15T21:59:09;31.03;;;15.67;;
9052;SDS011;4561;47.450;7.516;2022-12-15T22:02:34;614.23;;;35.97;;
9052;SDS011;4561;47.450;7.516;2022-12-15T22:05:54;91.87;;;18.30;;
9052;SDS011;4561;47.450;7.516;2022-12-15T22:09:15;27.27;;;16.23;;
9052;SDS011;4561;47.450;7.516;2022-12-15T22:12:38;140.30;;;21.10;;
9052;SDS011;4561;47.450;7.516;2022-12-15T22:15:59;86.77;;;19.93;;
9052;SDS011;4561;47.450;7.516;2022-12-15T22:19:20;483.97;;;35.87;;
9052;SDS011;4561;47.450;7.516;2022-12-15T22:22:40;34.10;;;17.60;;
9052;SDS011;4561;47.450;7.516;2022-12-15T22:26:01;161.97;;;23.07;;
9052;SDS011;4561;47.450;7.516;2022-12-15T22:29:22;197.57;;;23.93;;
9052;SDS011;4561;47.450;7.516;2022-12-15T22:32:45;45.80;;;19.43;;
9052;SDS011;4561;47.450;7.516;2022-12-15T22:36:06;40.57;;;19.27;;
9052;SDS011;4561;47.450;7.516;2022-12-15T22:39:26;102.57;;;20.97;;
9052;SDS011;4561;47.450;7.516;2022-12-15T22:42:50;89.93;;;20.13;;
9052;SDS011;4561;47.450;7.516;2022-12-15T22:46:13;109.57;;;21.63;;